createdAt,value
2022-08-03T00:03:38.319Z,100221.22
2022-08-03T00:08:41.197Z,100216.78
2022-08-03T00:13:44.119Z,100214.81
2022-08-03T00:18:48.274Z,100210.34
2022-08-03T00:23:52.875Z,100215.09
2022-08-03T00:28:55.896Z,100215.94
2022-08-03T00:34:03.324Z,100206.81
2022-08-03T00:39:06.427Z,100218.81
2022-08-03T00:44:09.184Z,100210.22
2022-08-03T00:49:13.444Z,100211.94
2022-08-03T00:54:16.840Z,100215.06
2022-08-03T00:59:19.615Z,100213.06
2022-08-03T01:04:24.089Z,100208.91
2022-08-03T01:09:37.845Z,100213.66
2022-08-03T01:14:45.602Z,100202.91
2022-08-03T01:19:57.964Z,100198.75
2022-08-03T01:25:07.559Z,100194.19
2022-08-03T01:30:13.335Z,100198.47
2022-08-03T01:35:22.379Z,100192.72
2022-08-03T01:40:28.460Z,100185.72
2022-08-03T01:45:34.385Z,100182.72
2022-08-03T01:50:38.009Z,100193.16
2022-08-03T01:55:42.176Z,100188.69
2022-08-03T02:00:49.231Z,100192.72
2022-08-03T02:06:17.930Z,100188.25
2022-08-03T02:11:18.266Z,100186.53
2022-08-03T02:16:24.650Z,100187.41
2022-08-03T02:21:55.627Z,100183.38
2022-08-03T02:26:56.485Z,100190.81
2022-08-03T02:32:04.513Z,100185.25
2022-08-03T02:37:09.593Z,100187.22
2022-08-03T02:42:15.406Z,100187.09
2022-08-03T02:47:22.106Z,100187.22
2022-08-03T02:52:28.152Z,100194.19
2022-08-03T02:57:32.638Z,100183.03
2022-08-03T03:02:38.239Z,100184.16
2022-08-03T03:07:52.061Z,100186.31
2022-08-03T03:12:57.683Z,100187.78
2022-08-03T03:18:02.871Z,100188.88
2022-08-03T03:23:06.867Z,100180.50
2022-08-03T03:28:11.893Z,100180.28
2022-08-03T03:33:16.311Z,100180.91
2022-08-03T03:38:19.933Z,100183.59
2022-08-03T03:43:24.573Z,100178.19
2022-08-03T03:48:29.236Z,100177.88
2022-08-03T03:53:35.098Z,100180.53
2022-08-03T03:58:37.963Z,100177.91
2022-08-03T04:03:42.073Z,100168.00
2022-08-03T04:09:13.991Z,100181.28
2022-08-03T04:14:20.382Z,100172.84
2022-08-03T04:19:29.499Z,100183.47
2022-08-03T04:24:36.303Z,100182.47
2022-08-03T04:29:44.806Z,100193.63
2022-08-03T04:34:53.509Z,100199.34
2022-08-03T04:39:59.516Z,100203.44
2022-08-03T04:45:04.990Z,100209.69
2022-08-03T04:50:13.539Z,100204.34
2022-08-03T04:55:26.950Z,100215.38
2022-08-03T05:00:30.389Z,100217.22
2022-08-03T05:05:49.972Z,100224.94
2022-08-03T05:10:53.777Z,100221.84
2022-08-03T05:15:56.608Z,100225.41
2022-08-03T05:21:00.795Z,100227.19
2022-08-03T05:26:03.748Z,100227.72
2022-08-03T05:31:06.621Z,100221.38
2022-08-03T05:36:10.768Z,100226.56
2022-08-03T05:41:22.972Z,100226.69
2022-08-03T05:46:26.826Z,100219.69
2022-08-03T05:51:31.501Z,100232.75
2022-08-03T05:56:34.243Z,100226.63
2022-08-03T06:01:37.064Z,100223.91
2022-08-03T06:06:42.087Z,100232.09
2022-08-03T06:11:44.856Z,100228.19
2022-08-03T06:16:48.796Z,100236.31
2022-08-03T06:21:52.999Z,100243.38
2022-08-03T06:26:56.097Z,100239.41
2022-08-03T06:31:58.809Z,100238.16
2022-08-03T06:37:02.890Z,100232.56
2022-08-03T06:42:06.034Z,100221.84
2022-08-03T06:47:13.097Z,100232.41
2022-08-03T06:52:37.984Z,100243.75
2022-08-03T06:57:40.099Z,100242.91
2022-08-03T07:02:43.051Z,100237.22
2022-08-03T07:07:47.485Z,100235.84
2022-08-03T07:12:55.597Z,100244.91
2022-08-03T07:18:00.049Z,100233.16
2022-08-03T07:23:04.276Z,100237.47
2022-08-03T07:28:07.200Z,100241.50
2022-08-03T07:33:09.948Z,100231.28
2022-08-03T07:38:14.095Z,100244.91
2022-08-03T07:43:17.777Z,100238.34
2022-08-03T07:48:20.742Z,100242.13
2022-08-03T07:53:24.729Z,100243.31
2022-08-03T07:58:27.485Z,100236.31
2022-08-03T08:03:30.437Z,100233.06
2022-08-03T08:08:55.170Z,100235.63
2022-08-03T08:13:57.970Z,100227.13
2022-08-03T08:19:02.009Z,100237.56
2022-08-03T08:24:10.944Z,100231.72
2022-08-03T08:29:23.113Z,100231.31
2022-08-03T08:34:25.874Z,100225.50
2022-08-03T08:39:29.890Z,100218.84
2022-08-03T08:44:32.657Z,100223.13
2022-08-03T08:49:37.025Z,100222.31
2022-08-03T08:54:45.628Z,100226.03
2022-08-03T08:59:49.726Z,100227.63
2022-08-03T09:04:54.388Z,100222.91
2022-08-03T09:10:11.085Z,100212.66
2022-08-03T09:15:26.722Z,100218.81
2022-08-03T09:20:31.467Z,100218.66
2022-08-03T09:25:37.375Z,100210.41
2022-08-03T09:30:42.169Z,100211.09
2022-08-03T09:35:57.361Z,100208.25
2022-08-03T09:41:01.947Z,100201.69
2022-08-03T09:46:07.371Z,100201.56
2022-08-03T09:51:14.334Z,100202.25
2022-08-03T09:56:45.245Z,100200.28
2022-08-03T10:01:48.090Z,100200.84
2022-08-03T10:07:06.788Z,100197.16
2022-08-03T10:12:12.560Z,100188.03
2022-08-03T10:17:15.598Z,100191.28
2022-08-03T10:22:20.789Z,100182.19
2022-08-03T10:27:26.048Z,100185.59
2022-08-03T10:32:32.553Z,100176.44
2022-08-03T10:37:41.926Z,100165.44
2022-08-03T10:43:08.933Z,100170.59
2022-08-03T10:48:12.226Z,100168.50
2022-08-03T10:53:15.338Z,100154.94
2022-08-03T10:58:57.703Z,100153.63
2022-08-03T11:04:18.325Z,100148.09
2022-08-03T11:09:21.138Z,100144.22
2022-08-03T11:14:25.242Z,100142.94
2022-08-03T11:19:56.742Z,100137.50
2022-08-03T11:25:02.150Z,100134.50
2022-08-03T11:30:10.962Z,100137.09
2022-08-03T11:35:16.149Z,100140.50
2022-08-03T11:40:35.501Z,100130.34
2022-08-03T11:45:39.786Z,100126.50
2022-08-03T11:50:45.213Z,100123.63
2022-08-03T11:55:49.975Z,100127.06
2022-08-03T12:00:54.675Z,100127.22
2022-08-03T12:05:57.418Z,100121.06
2022-08-03T12:11:02.903Z,100118.47
2022-08-03T12:16:07.888Z,100109.47
2022-08-03T12:21:12.392Z,100106.06
2022-08-03T12:26:15.455Z,100092.50
2022-08-03T12:31:19.657Z,100099.78
2022-08-03T12:36:22.816Z,100095.22
2022-08-03T12:41:31.191Z,100095.22
2022-08-03T12:46:37.576Z,100090.47
2022-08-03T12:51:57.903Z,100080.47
2022-08-03T12:57:03.033Z,100077.75
2022-08-03T13:02:09.317Z,100075.47
2022-08-03T13:07:14.487Z,100078.59
2022-08-03T13:12:20.949Z,100077.47
2022-08-03T13:17:25.392Z,100070.19
2022-08-03T13:22:29.349Z,100071.88
2022-08-03T13:28:13.895Z,100066.19
2022-08-03T13:32:58.461Z,100068.75
2022-08-03T13:38:01.705Z,100056.72
2022-08-03T13:43:05.057Z,100059.16
2022-08-03T13:48:09.416Z,100052.88
2022-08-03T13:53:12.185Z,100043.69
2022-08-03T13:58:15.271Z,100039.81
2022-08-03T14:03:19.420Z,100034.97
2022-08-03T14:08:22.173Z,100033.94
2022-08-03T14:13:25.063Z,100027.81
2022-08-03T14:18:33.755Z,100034.25
2022-08-03T14:23:38.457Z,100026.81
2022-08-03T14:28:42.045Z,100028.09
2022-08-03T14:33:46.158Z,100021.38
2022-08-03T14:38:50.193Z,100019.97
2022-08-03T14:44:00.403Z,100025.66
2022-08-03T14:50:36.346Z,100011.09
2022-08-03T14:54:30.912Z,100014.50
2022-08-03T14:59:56.453Z,100002.47
2022-08-03T15:04:57.932Z,100005.50
2022-08-03T15:10:02.259Z,100002.31
2022-08-03T15:15:05.883Z,99992.00
2022-08-03T15:20:25.468Z,99989.84
2022-08-03T15:26:04.210Z,99993.25
2022-08-03T15:30:57.122Z,99987.53
2022-08-03T15:36:01.259Z,99981.31
2022-08-03T15:41:04.049Z,99979.88
2022-08-03T15:51:31.498Z,99974.13
2022-08-03T15:56:34.560Z,99969.22
2022-08-03T16:01:37.406Z,99971.31
2022-08-03T16:06:41.662Z,99974.78
2022-08-03T16:11:44.413Z,99968.16
2022-08-03T16:16:47.291Z,99970.88
2022-08-03T16:21:51.558Z,99963.13
2022-08-03T16:26:54.306Z,99962.81
2022-08-03T16:31:57.066Z,99952.34
2022-08-03T16:37:16.555Z,99948.63
2022-08-03T16:42:23.887Z,99947.44
2022-08-03T16:47:26.798Z,99959.34
2022-08-03T16:52:30.919Z,99955.78
2022-08-03T16:57:58.440Z,99951.34
2022-08-03T17:02:59.708Z,99958.50
2022-08-03T17:08:10.566Z,99951.88
2022-08-03T17:13:22.473Z,99955.31
2022-08-03T17:18:29.646Z,99957.03
2022-08-03T17:23:40.892Z,99959.56
2022-08-03T17:28:50.181Z,99964.84
2022-08-03T17:33:55.506Z,99962.00
2022-08-03T17:39:01.299Z,99963.25
2022-08-03T17:44:14.887Z,99964.78
2022-08-03T17:49:24.792Z,99974.81
2022-08-03T17:54:36.807Z,99968.06
2022-08-03T18:00:27.095Z,99967.72
2022-08-03T18:06:11.887Z,99964.69
2022-08-03T18:10:57.883Z,99969.69
2022-08-03T18:16:08.460Z,99967.84
2022-08-03T18:21:16.888Z,99973.00
2022-08-03T18:26:22.918Z,99968.63
2022-08-03T18:31:59.921Z,99967.44
2022-08-03T18:36:50.358Z,99978.31
2022-08-03T18:41:54.552Z,99969.19
2022-08-03T18:47:18.005Z,99978.66
2022-08-03T18:52:27.851Z,99975.25
2022-08-03T18:57:39.256Z,99984.09
2022-08-03T19:02:49.338Z,99981.22
2022-08-03T19:07:59.600Z,99993.81
2022-08-03T19:13:11.674Z,99986.50
2022-08-03T19:18:17.974Z,99988.06
2022-08-03T19:23:24.593Z,99985.22
2022-08-03T19:28:30.930Z,99989.75
2022-08-03T19:33:55.858Z,99994.09
2022-08-03T19:38:59.492Z,99998.34
2022-08-03T19:44:06.954Z,99997.50
2022-08-03T19:49:15.974Z,99999.03
2022-08-03T19:54:25.298Z,99988.00
2022-08-03T19:59:42.017Z,99993.13
2022-08-03T20:04:53.061Z,99991.09
2022-08-03T20:09:57.050Z,99992.47
2022-08-03T20:15:01.573Z,99994.50
2022-08-03T20:20:05.647Z,99993.03
2022-08-03T20:25:12.454Z,99990.47
2022-08-03T20:30:20.722Z,99994.19
2022-08-03T20:35:30.233Z,100001.19
2022-08-03T20:40:34.058Z,100001.94
2022-08-03T20:46:00.267Z,100004.94
2022-08-03T20:51:02.139Z,100004.84
2022-08-03T20:56:05.784Z,100004.84
2022-08-03T21:01:12.783Z,100000.25
2022-08-03T21:06:27.336Z,100006.03
2022-08-03T21:11:41.902Z,100003.31
2022-08-03T21:16:46.539Z,100001.50
2022-08-03T21:21:50.564Z,100011.03
2022-08-03T21:26:55.838Z,99999.25
2022-08-03T21:32:00.452Z,99997.03
2022-08-03T21:37:03.960Z,99995.75
2022-08-03T21:42:07.076Z,100007.06
2022-08-03T21:47:13.224Z,100000.38
2022-08-03T21:52:17.239Z,100003.69
2022-08-03T21:57:23.985Z,100001.56
2022-08-03T22:02:32.067Z,100000.66
2022-08-03T22:07:35.880Z,100002.34
2022-08-03T22:12:39.893Z,99996.16
2022-08-03T22:17:54.919Z,100009.22
2022-08-03T22:23:02.985Z,100001.66
2022-08-03T22:28:09.296Z,99993.66
2022-08-03T22:33:15.554Z,99998.88
2022-08-03T22:38:19.288Z,99997.03
2022-08-03T22:43:24.716Z,100000.59
2022-08-03T22:48:29.368Z,100001.91
2022-08-03T22:53:36.006Z,99996.47
2022-08-03T22:58:38.812Z,99999.38
2022-08-03T23:03:58.901Z,100000.22
2022-08-03T23:09:07.154Z,100003.41
2022-08-03T23:14:12.879Z,99995.25
2022-08-03T23:19:25.106Z,99994.16
2022-08-03T23:24:30.185Z,100001.59
2022-08-03T23:29:35.855Z,99989.81
2022-08-03T23:34:59.131Z,99986.16
2022-08-03T23:40:03.666Z,99989.66
2022-08-03T23:45:07.433Z,99991.66
2022-08-03T23:50:12.422Z,99988.56
2022-08-03T23:55:22.975Z,99983.13
